sensor_id;sensor_type;location;lat;lon;timestamp;temperature;humidity
26304;DHT22;70693;48.680;8.890;2023-07-13T00:00:23;20.30;99.90
26304;DHT22;70693;48.680;8.890;2023-07-13T00:02:49;20.30;99.90
26304;DHT22;70693;48.680;8.890;2023-07-13T00:05:14;20.30;99.90
26304;DHT22;70693;48.680;8.890;2023-07-13T00:07:40;20.20;99.90
26304;DHT22;70693;48.680;8.890;2023-07-13T00:10:06;20.20;99.90
26304;DHT22;70693;48.680;8.890;2023-07-13T00:12:34;20.20;99.90
26304;DHT22;70693;48.680;8.890;2023-07-13T00:15:03;20.10;99.90
26304;DHT22;70693;48.680;8.890;2023-07-13T00:17:29;20.10;99.90
26304;DHT22;70693;48.680;8.890;2023-07-13T00:19:56;20.10;99.90
26304;DHT22;70693;48.680;8.890;2023-07-13T00:22:23;20.00;99.90
26304;DHT22;70693;48.680;8.890;2023-07-13T00:24:54;20.10;99.90
26304;DHT22;70693;48.680;8.890;2023-07-13T00:27:22;20.00;99.90
26304;DHT22;70693;48.680;8.890;2023-07-13T00:29:48;20.00;99.90
26304;DHT22;70693;48.680;8.890;2023-07-13T00:32:14;20.00;99.90
26304;DHT22;70693;48.680;8.890;2023-07-13T00:34:39;20.00;99.90
26304;DHT22;70693;48.680;8.890;2023-07-13T00:37:07;19.90;99.90
26304;DHT22;70693;48.680;8.890;2023-07-13T00:39:35;19.90;99.90
26304;DHT22;70693;48.680;8.890;2023-07-13T00:42:01;20.00;99.90
26304;DHT22;70693;48.680;8.890;2023-07-13T00:44:27;20.00;99.90
26304;DHT22;70693;48.680;8.890;2023-07-13T00:46:53;19.80;99.90
26304;DHT22;70693;48.680;8.890;2023-07-13T00:49:22;19.80;99.90
26304;DHT22;70693;48.680;8.890;2023-07-13T00:51:54;19.80;99.90
26304;DHT22;70693;48.680;8.890;2023-07-13T00:54:32;19.80;99.90
26304;DHT22;70693;48.680;8.890;2023-07-13T00:57:03;19.80;99.90
26304;DHT22;70693;48.680;8.890;2023-07-13T00:59:30;19.70;99.90
26304;DHT22;70693;48.680;8.890;2023-07-13T01:01:56;19.70;99.90
26304;DHT22;70693;48.680;8.890;2023-07-13T01:04:24;19.70;99.90
26304;DHT22;70693;48.680;8.890;2023-07-13T01:06:50;19.70;99.90
26304;DHT22;70693;48.680;8.890;2023-07-13T01:09:16;19.70;99.90
26304;DHT22;70693;48.680;8.890;2023-07-13T01:11:43;19.70;99.90
26304;DHT22;70693;48.680;8.890;2023-07-13T01:14:10;19.70;99.90
26304;DHT22;70693;48.680;8.890;2023-07-13T01:16:37;19.70;99.90
26304;DHT22;70693;48.680;8.890;2023-07-13T01:19:12;19.70;99.90
26304;DHT22;70693;48.680;8.890;2023-07-13T01:21:40;19.70;99.90
26304;DHT22;70693;48.680;8.890;2023-07-13T01:24:09;19.70;99.90
26304;DHT22;70693;48.680;8.890;2023-07-13T01:26:34;19.70;99.90
26304;DHT22;70693;48.680;8.890;2023-07-13T01:29:00;19.70;99.90
26304;DHT22;70693;48.680;8.890;2023-07-13T01:31:26;19.70;99.90
26304;DHT22;70693;48.680;8.890;2023-07-13T01:33:51;19.70;99.90
26304;DHT22;70693;48.680;8.890;2023-07-13T01:36:17;19.70;99.90
26304;DHT22;70693;48.680;8.890;2023-07-13T01:38:43;19.70;99.90
26304;DHT22;70693;48.680;8.890;2023-07-13T01:41:08;19.70;99.90
26304;DHT22;70693;48.680;8.890;2023-07-13T01:43:34;19.60;99.90
26304;DHT22;70693;48.680;8.890;2023-07-13T01:45:59;19.60;99.90
26304;DHT22;70693;48.680;8.890;2023-07-13T01:48:25;19.60;99.90
26304;DHT22;70693;48.680;8.890;2023-07-13T01:50:51;19.60;99.90
26304;DHT22;70693;48.680;8.890;2023-07-13T01:53:16;19.60;99.90
26304;DHT22;70693;48.680;8.890;2023-07-13T01:55:42;19.60;99.90
26304;DHT22;70693;48.680;8.890;2023-07-13T01:58:08;19.50;99.90
26304;DHT22;70693;48.680;8.890;2023-07-13T02:00:33;19.50;99.90
26304;DHT22;70693;48.680;8.890;2023-07-13T02:02:59;19.40;99.90
26304;DHT22;70693;48.680;8.890;2023-07-13T02:05:25;19.30;99.90
26304;DHT22;70693;48.680;8.890;2023-07-13T02:07:50;19.30;99.90
26304;DHT22;70693;48.680;8.890;2023-07-13T02:10:17;19.30;99.90
26304;DHT22;70693;48.680;8.890;2023-07-13T02:12:42;19.20;99.90
26304;DHT22;70693;48.680;8.890;2023-07-13T02:15:09;19.20;99.90
26304;DHT22;70693;48.680;8.890;2023-07-13T02:17:36;19.20;99.90
26304;DHT22;70693;48.680;8.890;2023-07-13T02:20:02;19.10;99.90
26304;DHT22;70693;48.680;8.890;2023-07-13T02:22:28;19.00;99.90
26304;DHT22;70693;48.680;8.890;2023-07-13T02:24:54;19.00;99.90
26304;DHT22;70693;48.680;8.890;2023-07-13T02:27:20;18.90;99.90
26304;DHT22;70693;48.680;8.890;2023-07-13T02:29:45;18.90;99.90
26304;DHT22;70693;48.680;8.890;2023-07-13T02:32:11;18.80;99.90
26304;DHT22;70693;48.680;8.890;2023-07-13T02:34:38;18.70;99.90
26304;DHT22;70693;48.680;8.890;2023-07-13T02:37:04;18.70;99.90
26304;DHT22;70693;48.680;8.890;2023-07-13T02:39:29;18.60;99.90
26304;DHT22;70693;48.680;8.890;2023-07-13T02:41:58;18.60;99.90
26304;DHT22;70693;48.680;8.890;2023-07-13T02:44:24;18.70;99.90
26304;DHT22;70693;48.680;8.890;2023-07-13T02:46:50;18.60;99.90
26304;DHT22;70693;48.680;8.890;2023-07-13T02:49:15;18.60;99.90
26304;DHT22;70693;48.680;8.890;2023-07-13T02:51:41;18.60;99.90
26304;DHT22;70693;48.680;8.890;2023-07-13T02:54:07;18.60;99.90
26304;DHT22;70693;48.680;8.890;2023-07-13T02:56:33;18.60;99.90
26304;DHT22;70693;48.680;8.890;2023-07-13T02:58:59;18.50;99.90
26304;DHT22;70693;48.680;8.890;2023-07-13T03:01:25;18.50;99.90
26304;DHT22;70693;48.680;8.890;2023-07-13T03:03:51;18.50;99.90
26304;DHT22;70693;48.680;8.890;2023-07-13T03:06:17;18.50;99.90
26304;DHT22;70693;48.680;8.890;2023-07-13T03:08:44;18.40;99.90
26304;DHT22;70693;48.680;8.890;2023-07-13T03:11:13;18.30;99.90
26304;DHT22;70693;48.680;8.890;2023-07-13T03:13:40;18.20;99.90
26304;DHT22;70693;48.680;8.890;2023-07-13T03:16:06;18.10;99.90
26304;DHT22;70693;48.680;8.890;2023-07-13T03:18:32;18.00;99.90
26304;DHT22;70693;48.680;8.890;2023-07-13T03:20:58;18.00;99.90
26304;DHT22;70693;48.680;8.890;2023-07-13T03:23:24;18.00;99.90
26304;DHT22;70693;48.680;8.890;2023-07-13T03:25:50;18.00;99.90
26304;DHT22;70693;48.680;8.890;2023-07-13T03:28:16;17.90;99.90
26304;DHT22;70693;48.680;8.890;2023-07-13T03:30:42;17.90;99.90
26304;DHT22;70693;48.680;8.890;2023-07-13T03:33:08;17.90;99.90
26304;DHT22;70693;48.680;8.890;2023-07-13T03:35:34;18.00;99.90
26304;DHT22;70693;48.680;8.890;2023-07-13T03:38:00;18.00;99.90
26304;DHT22;70693;48.680;8.890;2023-07-13T03:40:27;18.00;99.90
26304;DHT22;70693;48.680;8.890;2023-07-13T03:42:52;17.90;99.90
26304;DHT22;70693;48.680;8.890;2023-07-13T03:45:18;17.90;99.90
26304;DHT22;70693;48.680;8.890;2023-07-13T03:47:44;17.90;99.90
26304;DHT22;70693;48.680;8.890;2023-07-13T03:50:10;17.80;99.90
26304;DHT22;70693;48.680;8.890;2023-07-13T03:52:36;17.80;99.90
26304;DHT22;70693;48.680;8.890;2023-07-13T03:55:02;17.80;99.90
26304;DHT22;70693;48.680;8.890;2023-07-13T03:57:27;17.80;99.90
26304;DHT22;70693;48.680;8.890;2023-07-13T03:59:53;17.80;99.90
26304;DHT22;70693;48.680;8.890;2023-07-13T04:02:19;17.90;99.90
26304;DHT22;70693;48.680;8.890;2023-07-13T04:04:46;17.90;99.90
26304;DHT22;70693;48.680;8.890;2023-07-13T04:07:11;17.80;99.90
26304;DHT22;70693;48.680;8.890;2023-07-13T04:09:38;17.80;99.90
26304;DHT22;70693;48.680;8.890;2023-07-13T04:12:04;17.70;99.90
26304;DHT22;70693;48.680;8.890;2023-07-13T04:14:30;17.60;99.90
26304;DHT22;70693;48.680;8.890;2023-07-13T04:16:55;17.60;99.90
26304;DHT22;70693;48.680;8.890;2023-07-13T04:19:21;17.60;99.90
26304;DHT22;70693;48.680;8.890;2023-07-13T04:21:47;17.70;99.90
26304;DHT22;70693;48.680;8.890;2023-07-13T04:24:13;17.70;99.90
26304;DHT22;70693;48.680;8.890;2023-07-13T04:26:39;17.60;99.90
26304;DHT22;70693;48.680;8.890;2023-07-13T04:29:05;17.50;99.90
26304;DHT22;70693;48.680;8.890;2023-07-13T04:31:31;17.50;99.90
26304;DHT22;70693;48.680;8.890;2023-07-13T04:33:57;17.50;99.90
26304;DHT22;70693;48.680;8.890;2023-07-13T04:36:23;17.50;99.90
26304;DHT22;70693;48.680;8.890;2023-07-13T04:38:51;17.50;99.90
26304;DHT22;70693;48.680;8.890;2023-07-13T04:41:16;17.50;99.90
26304;DHT22;70693;48.680;8.890;2023-07-13T04:43:42;17.50;99.90
26304;DHT22;70693;48.680;8.890;2023-07-13T04:46:11;17.40;99.90
26304;DHT22;70693;48.680;8.890;2023-07-13T04:48:38;17.50;99.90
26304;DHT22;70693;48.680;8.890;2023-07-13T04:51:04;17.50;99.90
26304;DHT22;70693;48.680;8.890;2023-07-13T04:53:30;17.50;99.90
26304;DHT22;70693;48.680;8.890;2023-07-13T04:55:56;17.50;99.90
26304;DHT22;70693;48.680;8.890;2023-07-13T04:58:22;17.50;99.90
26304;DHT22;70693;48.680;8.890;2023-07-13T05:00:48;17.50;99.90
26304;DHT22;70693;48.680;8.890;2023-07-13T05:03:14;17.50;99.90
26304;DHT22;70693;48.680;8.890;2023-07-13T05:05:40;17.50;99.90
26304;DHT22;70693;48.680;8.890;2023-07-13T05:08:05;17.50;99.90
26304;DHT22;70693;48.680;8.890;2023-07-13T05:10:32;17.50;99.90
26304;DHT22;70693;48.680;8.890;2023-07-13T05:12:58;17.50;99.90
26304;DHT22;70693;48.680;8.890;2023-07-13T05:15:24;17.50;99.90
26304;DHT22;70693;48.680;8.890;2023-07-13T05:17:51;17.50;99.90
26304;DHT22;70693;48.680;8.890;2023-07-13T05:20:18;17.50;99.90
26304;DHT22;70693;48.680;8.890;2023-07-13T05:22:44;17.60;99.90
26304;DHT22;70693;48.680;8.890;2023-07-13T05:25:12;17.60;99.90
26304;DHT22;70693;48.680;8.890;2023-07-13T05:27:38;17.60;99.90
26304;DHT22;70693;48.680;8.890;2023-07-13T05:30:05;17.60;99.90
26304;DHT22;70693;48.680;8.890;2023-07-13T05:32:30;17.60;99.90
26304;DHT22;70693;48.680;8.890;2023-07-13T05:34:56;17.60;99.90
26304;DHT22;70693;48.680;8.890;2023-07-13T05:37:22;17.70;99.90
26304;DHT22;70693;48.680;8.890;2023-07-13T05:39:47;17.60;99.90
26304;DHT22;70693;48.680;8.890;2023-07-13T05:42:13;17.60;99.90
26304;DHT22;70693;48.680;8.890;2023-07-13T05:44:39;17.60;99.90
26304;DHT22;70693;48.680;8.890;2023-07-13T05:47:05;17.70;99.90
26304;DHT22;70693;48.680;8.890;2023-07-13T05:49:30;17.70;99.90
26304;DHT22;70693;48.680;8.890;2023-07-13T05:51:57;17.70;99.90
26304;DHT22;70693;48.680;8.890;2023-07-13T05:54:22;17.70;99.90
26304;DHT22;70693;48.680;8.890;2023-07-13T05:56:48;17.80;99.90
26304;DHT22;70693;48.680;8.890;2023-07-13T05:59:14;17.80;99.90
26304;DHT22;70693;48.680;8.890;2023-07-13T06:01:39;17.80;99.90
26304;DHT22;70693;48.680;8.890;2023-07-13T06:04:06;17.90;99.90
26304;DHT22;70693;48.680;8.890;2023-07-13T06:06:32;17.90;99.90
26304;DHT22;70693;48.680;8.890;2023-07-13T06:08:57;18.00;99.90
26304;DHT22;70693;48.680;8.890;2023-07-13T06:11:25;18.00;99.90
26304;DHT22;70693;48.680;8.890;2023-07-13T06:13:51;18.00;99.90
26304;DHT22;70693;48.680;8.890;2023-07-13T06:16:17;18.10;99.90
26304;DHT22;70693;48.680;8.890;2023-07-13T06:18:43;18.10;99.90
26304;DHT22;70693;48.680;8.890;2023-07-13T06:21:16;18.20;99.90
26304;DHT22;70693;48.680;8.890;2023-07-13T06:23:42;18.20;99.90
26304;DHT22;70693;48.680;8.890;2023-07-13T06:26:09;18.30;99.90
26304;DHT22;70693;48.680;8.890;2023-07-13T06:28:36;18.40;99.90
26304;DHT22;70693;48.680;8.890;2023-07-13T06:31:04;18.40;99.90
26304;DHT22;70693;48.680;8.890;2023-07-13T06:33:30;18.40;99.90
26304;DHT22;70693;48.680;8.890;2023-07-13T06:35:55;18.50;99.90
26304;DHT22;70693;48.680;8.890;2023-07-13T06:38:21;18.50;99.90
26304;DHT22;70693;48.680;8.890;2023-07-13T06:40:47;18.60;99.90
26304;DHT22;70693;48.680;8.890;2023-07-13T06:43:12;18.60;99.90
26304;DHT22;70693;48.680;8.890;2023-07-13T06:45:44;18.60;99.90
26304;DHT22;70693;48.680;8.890;2023-07-13T06:48:13;18.60;99.90
26304;DHT22;70693;48.680;8.890;2023-07-13T06:50:39;18.70;99.90
26304;DHT22;70693;48.680;8.890;2023-07-13T06:53:06;18.70;99.90
26304;DHT22;70693;48.680;8.890;2023-07-13T06:55:31;18.80;99.90
26304;DHT22;70693;48.680;8.890;2023-07-13T06:57:57;18.80;99.90
26304;DHT22;70693;48.680;8.890;2023-07-13T07:00:23;18.90;99.90
26304;DHT22;70693;48.680;8.890;2023-07-13T07:02:49;18.90;99.90
26304;DHT22;70693;48.680;8.890;2023-07-13T07:05:15;18.90;99.90
26304;DHT22;70693;48.680;8.890;2023-07-13T07:07:40;19.00;99.90
26304;DHT22;70693;48.680;8.890;2023-07-13T07:10:06;19.10;99.90
26304;DHT22;70693;48.680;8.890;2023-07-13T07:12:32;19.10;99.90
26304;DHT22;70693;48.680;8.890;2023-07-13T07:14:58;19.10;99.90
26304;DHT22;70693;48.680;8.890;2023-07-13T07:17:23;19.20;99.90
26304;DHT22;70693;48.680;8.890;2023-07-13T07:19:50;19.30;99.90
26304;DHT22;70693;48.680;8.890;2023-07-13T07:22:16;19.30;99.90
26304;DHT22;70693;48.680;8.890;2023-07-13T07:24:41;19.30;99.90
26304;DHT22;70693;48.680;8.890;2023-07-13T07:27:07;19.40;99.90
26304;DHT22;70693;48.680;8.890;2023-07-13T07:29:33;19.40;99.90
26304;DHT22;70693;48.680;8.890;2023-07-13T07:31:59;19.40;99.90
26304;DHT22;70693;48.680;8.890;2023-07-13T07:34:25;19.50;99.90
26304;DHT22;70693;48.680;8.890;2023-07-13T07:36:51;19.50;99.90
26304;DHT22;70693;48.680;8.890;2023-07-13T07:39:17;19.50;99.90
26304;DHT22;70693;48.680;8.890;2023-07-13T07:41:42;19.60;99.90
26304;DHT22;70693;48.680;8.890;2023-07-13T07:44:08;19.60;99.90
26304;DHT22;70693;48.680;8.890;2023-07-13T07:46:35;19.60;99.90
26304;DHT22;70693;48.680;8.890;2023-07-13T07:49:01;19.70;99.90
26304;DHT22;70693;48.680;8.890;2023-07-13T07:51:26;19.70;99.90
26304;DHT22;70693;48.680;8.890;2023-07-13T07:53:52;19.70;99.90
26304;DHT22;70693;48.680;8.890;2023-07-13T07:56:17;19.70;99.90
26304;DHT22;70693;48.680;8.890;2023-07-13T07:58:43;19.80;99.90
26304;DHT22;70693;48.680;8.890;2023-07-13T08:01:09;19.80;99.90
26304;DHT22;70693;48.680;8.890;2023-07-13T08:03:35;19.80;99.90
26304;DHT22;70693;48.680;8.890;2023-07-13T08:06:01;19.80;99.90
26304;DHT22;70693;48.680;8.890;2023-07-13T08:08:26;19.90;99.90
26304;DHT22;70693;48.680;8.890;2023-07-13T08:10:53;19.90;99.90
26304;DHT22;70693;48.680;8.890;2023-07-13T08:13:19;19.90;99.90
26304;DHT22;70693;48.680;8.890;2023-07-13T08:15:46;19.90;99.90
26304;DHT22;70693;48.680;8.890;2023-07-13T08:18:11;20.00;99.90
26304;DHT22;70693;48.680;8.890;2023-07-13T08:20:40;20.00;99.90
26304;DHT22;70693;48.680;8.890;2023-07-13T08:23:07;20.00;99.90
26304;DHT22;70693;48.680;8.890;2023-07-13T08:25:34;20.00;99.90
26304;DHT22;70693;48.680;8.890;2023-07-13T08:28:00;20.00;99.90
26304;DHT22;70693;48.680;8.890;2023-07-13T08:30:26;20.10;99.90
26304;DHT22;70693;48.680;8.890;2023-07-13T08:32:53;20.10;99.90
26304;DHT22;70693;48.680;8.890;2023-07-13T08:35:18;20.10;99.90
26304;DHT22;70693;48.680;8.890;2023-07-13T08:37:44;20.10;99.90
26304;DHT22;70693;48.680;8.890;2023-07-13T08:40:11;20.10;99.90
26304;DHT22;70693;48.680;8.890;2023-07-13T08:42:58;20.20;99.90
26304;DHT22;70693;48.680;8.890;2023-07-13T08:45:26;20.10;99.90
26304;DHT22;70693;48.680;8.890;2023-07-13T08:50:25;20.20;99.90
26304;DHT22;70693;48.680;8.890;2023-07-13T08:52:53;20.20;99.90
26304;DHT22;70693;48.680;8.890;2023-07-13T08:55:22;20.20;99.90
26304;DHT22;70693;48.680;8.890;2023-07-13T08:57:59;20.30;99.90
26304;DHT22;70693;48.680;8.890;2023-07-13T09:00:38;20.30;99.90
26304;DHT22;70693;48.680;8.890;2023-07-13T09:03:16;20.30;99.90
26304;DHT22;70693;48.680;8.890;2023-07-13T09:05:53;20.30;99.90
26304;DHT22;70693;48.680;8.890;2023-07-13T09:14:17;20.30;99.90
26304;DHT22;70693;48.680;8.890;2023-07-13T09:16:49;20.40;99.90
26304;DHT22;70693;48.680;8.890;2023-07-13T09:19:21;20.40;99.90
26304;DHT22;70693;48.680;8.890;2023-07-13T09:21:51;20.40;99.90
26304;DHT22;70693;48.680;8.890;2023-07-13T09:27:19;20.50;99.90
26304;DHT22;70693;48.680;8.890;2023-07-13T09:29:51;20.50;99.90
26304;DHT22;70693;48.680;8.890;2023-07-13T09:32:22;20.50;99.90
26304;DHT22;70693;48.680;8.890;2023-07-13T09:34:51;20.50;99.90
26304;DHT22;70693;48.680;8.890;2023-07-13T09:37:19;20.50;99.90
26304;DHT22;70693;48.680;8.890;2023-07-13T09:39:46;20.50;99.90
26304;DHT22;70693;48.680;8.890;2023-07-13T09:42:21;20.50;99.90
26304;DHT22;70693;48.680;8.890;2023-07-13T09:47:16;20.60;99.90
26304;DHT22;70693;48.680;8.890;2023-07-13T09:49:42;20.60;99.90
26304;DHT22;70693;48.680;8.890;2023-07-13T09:52:15;20.60;99.90
26304;DHT22;70693;48.680;8.890;2023-07-13T09:54:45;20.60;99.90
26304;DHT22;70693;48.680;8.890;2023-07-13T09:57:19;20.60;99.90
26304;DHT22;70693;48.680;8.890;2023-07-13T09:59:51;20.60;99.90
26304;DHT22;70693;48.680;8.890;2023-07-13T10:02:28;20.60;99.90
26304;DHT22;70693;48.680;8.890;2023-07-13T10:05:03;20.60;99.90
26304;DHT22;70693;48.680;8.890;2023-07-13T10:07:29;20.70;99.90
26304;DHT22;70693;48.680;8.890;2023-07-13T10:09:59;20.70;99.90
26304;DHT22;70693;48.680;8.890;2023-07-13T10:12:27;20.70;99.90
26304;DHT22;70693;48.680;8.890;2023-07-13T10:14:58;20.70;99.90
26304;DHT22;70693;48.680;8.890;2023-07-13T10:17:32;20.70;99.90
26304;DHT22;70693;48.680;8.890;2023-07-13T10:20:04;20.70;99.90
26304;DHT22;70693;48.680;8.890;2023-07-13T10:23:01;20.70;99.90
26304;DHT22;70693;48.680;8.890;2023-07-13T10:25:31;20.80;99.90
26304;DHT22;70693;48.680;8.890;2023-07-13T10:28:11;20.80;99.90
26304;DHT22;70693;48.680;8.890;2023-07-13T10:30:41;20.90;99.90
26304;DHT22;70693;48.680;8.890;2023-07-13T10:33:12;21.00;99.90
26304;DHT22;70693;48.680;8.890;2023-07-13T10:35:41;20.80;99.90
26304;DHT22;70693;48.680;8.890;2023-07-13T10:40:58;20.90;99.90
26304;DHT22;70693;48.680;8.890;2023-07-13T10:43:32;20.90;99.90
26304;DHT22;70693;48.680;8.890;2023-07-13T10:46:00;20.90;99.90
26304;DHT22;70693;48.680;8.890;2023-07-13T10:48:27;20.90;99.90
26304;DHT22;70693;48.680;8.890;2023-07-13T10:50:55;20.90;99.90
26304;DHT22;70693;48.680;8.890;2023-07-13T10:53:34;20.90;99.90
26304;DHT22;70693;48.680;8.890;2023-07-13T10:58:47;21.00;99.90
26304;DHT22;70693;48.680;8.890;2023-07-13T11:01:39;21.00;99.90
26304;DHT22;70693;48.680;8.890;2023-07-13T11:04:09;21.00;99.90
26304;DHT22;70693;48.680;8.890;2023-07-13T11:06:38;21.00;99.90
26304;DHT22;70693;48.680;8.890;2023-07-13T11:17:53;21.10;99.90
26304;DHT22;70693;48.680;8.890;2023-07-13T11:20:34;21.10;99.90
26304;DHT22;70693;48.680;8.890;2023-07-13T11:23:20;21.10;99.90
26304;DHT22;70693;48.680;8.890;2023-07-13T11:25:46;21.10;99.90
26304;DHT22;70693;48.680;8.890;2023-07-13T11:30:46;21.10;99.90
26304;DHT22;70693;48.680;8.890;2023-07-13T11:38:36;21.10;99.90
26304;DHT22;70693;48.680;8.890;2023-07-13T11:41:14;21.20;99.90
26304;DHT22;70693;48.680;8.890;2023-07-13T11:43:41;21.20;99.90
26304;DHT22;70693;48.680;8.890;2023-07-13T11:46:15;21.20;99.90
26304;DHT22;70693;48.680;8.890;2023-07-13T11:48:42;21.30;99.90
26304;DHT22;70693;48.680;8.890;2023-07-13T11:53:48;21.20;99.90
26304;DHT22;70693;48.680;8.890;2023-07-13T11:56:14;21.20;99.90
26304;DHT22;70693;48.680;8.890;2023-07-13T11:58:40;21.20;99.90
26304;DHT22;70693;48.680;8.890;2023-07-13T12:01:17;21.20;99.90
26304;DHT22;70693;48.680;8.890;2023-07-13T12:03:44;21.20;99.90
26304;DHT22;70693;48.680;8.890;2023-07-13T12:06:40;21.20;99.90
26304;DHT22;70693;48.680;8.890;2023-07-13T12:09:12;21.30;99.90
26304;DHT22;70693;48.680;8.890;2023-07-13T12:11:45;21.30;99.90
26304;DHT22;70693;48.680;8.890;2023-07-13T12:14:18;21.30;99.90
26304;DHT22;70693;48.680;8.890;2023-07-13T12:16:45;21.30;99.90
26304;DHT22;70693;48.680;8.890;2023-07-13T12:19:21;21.30;99.90
26304;DHT22;70693;48.680;8.890;2023-07-13T12:21:48;21.30;99.90
26304;DHT22;70693;48.680;8.890;2023-07-13T12:24:17;21.30;99.90
26304;DHT22;70693;48.680;8.890;2023-07-13T12:26:43;21.30;99.90
26304;DHT22;70693;48.680;8.890;2023-07-13T12:29:15;21.30;99.90
26304;DHT22;70693;48.680;8.890;2023-07-13T12:31:47;21.30;99.90
26304;DHT22;70693;48.680;8.890;2023-07-13T12:34:15;21.40;99.40
26304;DHT22;70693;48.680;8.890;2023-07-13T12:37:02;21.60;95.20
26304;DHT22;70693;48.680;8.890;2023-07-13T12:39:57;21.80;96.60
26304;DHT22;70693;48.680;8.890;2023-07-13T12:42:25;21.70;96.50
26304;DHT22;70693;48.680;8.890;2023-07-13T12:47:30;21.80;95.20
26304;DHT22;70693;48.680;8.890;2023-07-13T12:49:58;21.80;95.00
26304;DHT22;70693;48.680;8.890;2023-07-13T12:52:30;21.80;94.50
26304;DHT22;70693;48.680;8.890;2023-07-13T12:54:58;21.90;93.50
26304;DHT22;70693;48.680;8.890;2023-07-13T12:57:25;21.90;94.90
26304;DHT22;70693;48.680;8.890;2023-07-13T12:59:55;21.90;95.30
26304;DHT22;70693;48.680;8.890;2023-07-13T13:02:29;21.90;95.40
26304;DHT22;70693;48.680;8.890;2023-07-13T13:04:56;21.80;95.50
26304;DHT22;70693;48.680;8.890;2023-07-13T13:07:23;21.80;95.90
26304;DHT22;70693;48.680;8.890;2023-07-13T13:09:49;21.80;96.10
26304;DHT22;70693;48.680;8.890;2023-07-13T13:12:14;21.70;96.20
26304;DHT22;70693;48.680;8.890;2023-07-13T13:14:43;21.70;96.20
26304;DHT22;70693;48.680;8.890;2023-07-13T13:17:28;21.70;96.40
26304;DHT22;70693;48.680;8.890;2023-07-13T13:19:54;21.70;96.50
26304;DHT22;70693;48.680;8.890;2023-07-13T13:22:21;21.70;96.70
26304;DHT22;70693;48.680;8.890;2023-07-13T13:24:47;21.70;96.80
26304;DHT22;70693;48.680;8.890;2023-07-13T13:27:18;21.70;96.90
26304;DHT22;70693;48.680;8.890;2023-07-13T13:29:45;21.70;96.90
26304;DHT22;70693;48.680;8.890;2023-07-13T13:32:14;21.70;97.20
26304;DHT22;70693;48.680;8.890;2023-07-13T13:34:41;21.70;97.00
26304;DHT22;70693;48.680;8.890;2023-07-13T13:37:25;21.70;97.50
26304;DHT22;70693;48.680;8.890;2023-07-13T13:39:51;21.70;97.20
26304;DHT22;70693;48.680;8.890;2023-07-13T13:42:19;21.70;97.20
26304;DHT22;70693;48.680;8.890;2023-07-13T13:44:46;21.70;97.30
26304;DHT22;70693;48.680;8.890;2023-07-13T13:47:29;21.70;97.40
26304;DHT22;70693;48.680;8.890;2023-07-13T13:49:56;21.70;97.40
26304;DHT22;70693;48.680;8.890;2023-07-13T13:52:21;21.70;97.50
26304;DHT22;70693;48.680;8.890;2023-07-13T13:54:47;21.70;97.50
26304;DHT22;70693;48.680;8.890;2023-07-13T13:57:14;21.70;97.50
26304;DHT22;70693;48.680;8.890;2023-07-13T13:59:40;21.70;97.60
26304;DHT22;70693;48.680;8.890;2023-07-13T14:02:27;21.70;97.60
26304;DHT22;70693;48.680;8.890;2023-07-13T14:04:58;21.70;97.70
26304;DHT22;70693;48.680;8.890;2023-07-13T14:07:25;21.70;97.80
26304;DHT22;70693;48.680;8.890;2023-07-13T14:09:57;21.70;97.80
26304;DHT22;70693;48.680;8.890;2023-07-13T14:12:22;21.70;97.80
26304;DHT22;70693;48.680;8.890;2023-07-13T14:14:51;21.70;97.90
26304;DHT22;70693;48.680;8.890;2023-07-13T14:17:25;21.70;97.90
26304;DHT22;70693;48.680;8.890;2023-07-13T14:19:52;21.70;98.00
26304;DHT22;70693;48.680;8.890;2023-07-13T14:22:23;21.70;98.00
26304;DHT22;70693;48.680;8.890;2023-07-13T14:24:51;21.80;98.00
26304;DHT22;70693;48.680;8.890;2023-07-13T14:27:16;21.80;98.10
26304;DHT22;70693;48.680;8.890;2023-07-13T14:29:42;21.80;98.10
26304;DHT22;70693;48.680;8.890;2023-07-13T14:32:12;21.80;98.00
26304;DHT22;70693;48.680;8.890;2023-07-13T14:34:38;21.70;98.00
26304;DHT22;70693;48.680;8.890;2023-07-13T14:37:05;21.80;98.10
26304;DHT22;70693;48.680;8.890;2023-07-13T14:39:31;21.80;98.10
26304;DHT22;70693;48.680;8.890;2023-07-13T14:41:57;21.80;98.10
26304;DHT22;70693;48.680;8.890;2023-07-13T14:44:30;21.80;98.30
26304;DHT22;70693;48.680;8.890;2023-07-13T14:47:01;21.80;98.30
26304;DHT22;70693;48.680;8.890;2023-07-13T14:49:43;21.80;98.30
26304;DHT22;70693;48.680;8.890;2023-07-13T14:52:13;21.80;98.30
26304;DHT22;70693;48.680;8.890;2023-07-13T14:54:39;21.80;98.40
26304;DHT22;70693;48.680;8.890;2023-07-13T14:57:11;21.80;98.40
26304;DHT22;70693;48.680;8.890;2023-07-13T14:59:37;21.80;98.40
26304;DHT22;70693;48.680;8.890;2023-07-13T15:02:08;21.80;98.40
26304;DHT22;70693;48.680;8.890;2023-07-13T15:04:36;21.80;98.40
26304;DHT22;70693;48.680;8.890;2023-07-13T15:07:02;21.80;98.40
26304;DHT22;70693;48.680;8.890;2023-07-13T15:09:28;21.80;98.50
26304;DHT22;70693;48.680;8.890;2023-07-13T15:11:58;21.80;98.50
26304;DHT22;70693;48.680;8.890;2023-07-13T15:14:24;21.80;98.50
26304;DHT22;70693;48.680;8.890;2023-07-13T15:16:53;21.90;98.50
26304;DHT22;70693;48.680;8.890;2023-07-13T15:19:20;21.80;98.50
26304;DHT22;70693;48.680;8.890;2023-07-13T15:21:47;21.80;98.50
26304;DHT22;70693;48.680;8.890;2023-07-13T15:24:13;21.80;98.50
26304;DHT22;70693;48.680;8.890;2023-07-13T15:26:39;21.80;98.60
26304;DHT22;70693;48.680;8.890;2023-07-13T15:29:05;21.90;98.60
26304;DHT22;70693;48.680;8.890;2023-07-13T15:31:32;21.80;98.60
26304;DHT22;70693;48.680;8.890;2023-07-13T15:33:59;21.80;98.60
26304;DHT22;70693;48.680;8.890;2023-07-13T15:36:26;21.90;99.00
26304;DHT22;70693;48.680;8.890;2023-07-13T15:38:54;21.80;98.70
26304;DHT22;70693;48.680;8.890;2023-07-13T15:41:24;21.80;98.70
26304;DHT22;70693;48.680;8.890;2023-07-13T15:43:52;21.80;98.70
26304;DHT22;70693;48.680;8.890;2023-07-13T15:46:22;21.90;98.70
26304;DHT22;70693;48.680;8.890;2023-07-13T15:48:52;21.80;98.70
26304;DHT22;70693;48.680;8.890;2023-07-13T15:51:30;21.80;98.70
26304;DHT22;70693;48.680;8.890;2023-07-13T15:53:58;21.80;98.70
26304;DHT22;70693;48.680;8.890;2023-07-13T15:56:27;21.90;98.70
26304;DHT22;70693;48.680;8.890;2023-07-13T15:58:53;21.90;98.80
26304;DHT22;70693;48.680;8.890;2023-07-13T16:01:21;21.90;98.80
26304;DHT22;70693;48.680;8.890;2023-07-13T16:03:47;21.90;98.80
26304;DHT22;70693;48.680;8.890;2023-07-13T16:06:19;21.90;98.80
26304;DHT22;70693;48.680;8.890;2023-07-13T16:08:48;21.90;98.80
26304;DHT22;70693;48.680;8.890;2023-07-13T16:11:24;21.90;98.90
26304;DHT22;70693;48.680;8.890;2023-07-13T16:13:51;21.90;98.90
26304;DHT22;70693;48.680;8.890;2023-07-13T16:16:26;21.90;98.90